Ottumwa, IA

3:36 AM CST on December 29, 2014 (GMT -0600)
Oskaloosa Municipal | Change Station
CLOSE
Current Station
Airport
Location: Oskaloosa,
Elevation: 840 ft
Nearby Weather Stations

Elev 840 ft 41.23 °N, 92.49 °W | Updated 21 minutes ago

Partly Cloudy
Partly Cloudy
24 °F
Feels Like 19 °F
N
5
Wind Variable Wind from ENE

Today
High -- | Low -- °F
--% Chance of Precip.
Yesterday
High -- | Low -- °F
Precip. -- in
7:34 AM 4:49 PM
First Quarter, 57% visible
Pressure 30.27 in
Visibility 10.0 miles
Clouds Scattered Clouds 8500 ft
Windchill 19 °F
Dew Point 21 °F
Humidity 86%
Rainfall 0.00 in
Snow Depth Not available.
UV 0 out of 12
Pollen .10 out of 12
Air Quality Not available.
Flu Activity Not available.
METAR KOOA 290915Z AUTO 06004KT 10SM SCT085 M04/M06 A3027 RMK AO2 T10421063

More Conditions Fewer Conditions

Pressure 30.27 in
Visibility 10.0 miles
Clouds Scattered Clouds 8500 ft
Windchill 19 °F
Dew Point 21 °F
Humidity 86%
Rainfall 0.00 in
Snow Depth Not available.
UV 0 out of 12
Pollen .10 out of 12
Air Quality Not available.
Flu Activity Not available.
METAR KOOA 290915Z AUTO 06004KT 10SM SCT085 M04/M06 A3027 RMK AO2 T10421063

More Conditions Fewer Conditions

10-Day Weather Forecast

Almanac

Astronomy

Dec. 29, 2014 Rise Set
Actual Time
Civil Twilight
Nautical Twilight
Astronomical Twilight
Moon
Length of Visible Light
Length of Day
Tomorrow will be .
, % of the Moon is Illuminated

Today's Extremes

State Highs State Lows

Community

WunderPhotos

Upload Photos

1,781,562 photos uploaded!

WunderBlogs® & News

Nearby

Air Quality

  Air Quality AQ Index Pollutant
Not available.

Snow Depth

Station Depth Elevation

Earthquake Activity

City Distance Mag. Time & Date
Minimum magnitude displayed is 2.5.

Coastal Water Temperatures

Place Temperature

Nearby Weather Stations